Time;durP1;ratioP1;P1;durP2;ratioP2;P2;SDS_P1;SDS_P2;PMS_P1;PMS_P2;Temp;Humidity;BMP_temperature;BMP_pressure;BME280_temperature;BME280_humidity;BME280_pressure;Samples;Min_cycle;Max_cycle;Signal;HPM_P1;HPM_P2
2022/12/25 00:01:57;;;;;;;13.75;7.85;;;23.40;47.20;;;;;;6086284;28;81423;-60
2022/12/25 00:04:58;;;;;;;15.70;7.68;;;23.40;47.20;;;;;;6093307;28;80573;-60
2022/12/25 00:07:58;;;;;;;15.98;8.15;;;23.40;47.10;;;;;;6095299;28;81390;-60
2022/12/25 00:10:59;;;;;;;15.00;8.20;;;23.40;47.10;;;;;;6094477;28;81848;-67
2022/12/25 00:13:59;;;;;;;14.63;7.35;;;23.40;47.00;;;;;;6090175;28;80817;-64
2022/12/25 00:17:00;;;;;;;14.95;8.45;;;23.40;46.90;;;;;;6101266;28;81283;-65
2022/12/25 00:20:00;;;;;;;13.30;6.75;;;23.40;47.00;;;;;;6105431;28;81408;-65
2022/12/25 00:23:01;;;;;;;16.33;8.70;;;23.40;47.20;;;;;;6090027;28;80218;-70
2022/12/25 00:26:01;;;;;;;13.25;6.72;;;23.40;47.10;;;;;;6085682;28;81528;-71
2022/12/25 00:29:02;;;;;;;14.13;7.82;;;23.40;47.10;;;;;;6080586;28;80379;-72
2022/12/25 00:32:02;;;;;;;17.50;8.23;;;23.40;46.90;;;;;;6087740;28;83385;-70
2022/12/25 00:35:03;;;;;;;13.35;7.65;;;23.40;46.90;;;;;;6088448;28;80951;-70
2022/12/25 00:38:03;;;;;;;14.07;7.82;;;23.40;46.80;;;;;;6084136;28;82851;-69
2022/12/25 00:41:04;;;;;;;14.13;7.22;;;23.40;46.80;;;;;;6091857;28;81388;-69
2022/12/25 00:44:05;;;;;;;14.95;7.60;;;23.40;46.70;;;;;;6096055;28;81228;-69
2022/12/25 00:47:05;;;;;;;13.15;7.60;;;23.40;46.80;;;;;;6082170;28;80395;-70
2022/12/25 00:50:06;;;;;;;13.00;7.68;;;23.40;46.80;;;;;;6081416;28;83136;-69
2022/12/25 00:53:06;;;;;;;13.23;7.30;;;23.40;46.90;;;;;;6079663;28;80526;-67
2022/12/25 00:56:07;;;;;;;16.55;7.80;;;23.40;47.10;;;;;;6079252;28;80891;-67
2022/12/25 00:59:07;;;;;;;13.65;7.38;;;23.40;47.00;;;;;;6090823;28;81152;-66
2022/12/25 01:02:23;;;;;;;13.45;7.47;;;23.40;46.90;;;;;;6093891;28;80878;-64
2022/12/25 01:05:24;;;;;;;13.20;7.55;;;23.40;47.00;;;;;;6087391;28;81627;-64
2022/12/25 01:08:24;;;;;;;15.30;7.50;;;23.40;46.90;;;;;;6113330;28;89950;-67
2022/12/25 01:11:25;;;;;;;13.75;7.90;;;23.40;47.10;;;;;;6087589;28;80617;-65
2022/12/25 01:14:25;;;;;;;14.65;7.72;;;23.40;47.20;;;;;;6092051;28;80724;-65
2022/12/25 01:17:26;;;;;;;12.63;7.45;;;23.30;46.90;;;;;;6082719;28;80760;-65
2022/12/25 01:20:27;;;;;;;14.75;8.25;;;23.30;46.90;;;;;;6098947;28;80973;-65
2022/12/25 01:23:27;;;;;;;13.93;6.97;;;23.30;46.80;;;;;;6102796;28;82219;-64
2022/12/25 01:26:28;;;;;;;12.05;7.28;;;23.30;47.00;;;;;;6094308;28;80507;-64
2022/12/25 01:29:28;;;;;;;17.27;8.05;;;23.30;47.00;;;;;;6082725;28;80608;-65
2022/12/25 01:32:29;;;;;;;11.88;6.75;;;23.30;47.10;;;;;;6082760;28;80476;-65
2022/12/25 01:35:29;;;;;;;13.18;6.40;;;23.30;47.00;;;;;;6093435;28;80829;-65
2022/12/25 01:38:30;;;;;;;11.68;6.97;;;23.30;47.00;;;;;;6082158;28;80908;-63
2022/12/25 01:41:30;;;;;;;13.15;6.95;;;23.30;47.00;;;;;;6090224;28;82470;-59
2022/12/25 01:44:31;;;;;;;11.93;7.07;;;23.30;47.00;;;;;;6093876;28;81156;-59
2022/12/25 01:47:31;;;;;;;12.10;7.15;;;23.30;47.10;;;;;;6080985;28;80504;-59
2022/12/25 01:50:32;;;;;;;11.13;6.78;;;23.30;47.00;;;;;;6085168;28;81474;-59
2022/12/25 01:53:32;;;;;;;10.73;6.82;;;23.30;47.00;;;;;;6082699;28;82308;-60
2022/12/25 01:56:33;;;;;;;11.77;7.00;;;23.30;47.00;;;;;;6096498;28;87815;-59
2022/12/25 01:59:34;;;;;;;17.40;7.45;;;23.30;46.80;;;;;;6079991;28;80470;-60
2022/12/25 02:02:34;;;;;;;10.73;6.53;;;23.30;46.80;;;;;;6081373;28;80643;-60
2022/12/25 02:05:35;;;;;;;11.73;6.70;;;23.30;46.80;;;;;;6081036;28;80361;-60
2022/12/25 02:08:35;;;;;;;11.20;6.28;;;23.30;46.80;;;;;;6079936;28;80192;-60
2022/12/25 02:14:55;;;;;;;12.30;6.60;;;23.30;46.80;;;;;;6089226;28;81579;-60
2022/12/25 02:17:55;;;;;;;11.90;6.43;;;23.30;47.00;;;;;;6056215;28;80761;-64
2022/12/25 02:20:57;;;;;;;10.20;6.15;;;23.30;46.90;;;;;;6069872;28;81688;-65
2022/12/25 02:23:58;;;;;;;9.70;6.10;;;23.30;46.90;;;;;;6064167;28;81698;-65
2022/12/25 02:26:58;;;;;;;12.10;6.57;;;23.30;46.90;;;;;;6062793;28;81380;-65
2022/12/25 02:29:59;;;;;;;12.13;5.97;;;23.30;46.80;;;;;;6074060;28;80510;-64
2022/12/25 02:36:19;;;;;;;11.02;6.30;;;23.20;46.80;;;;;;6060484;28;80392;-64
2022/12/25 03:12:33;;;;;;;11.75;6.00;;;23.20;47.20;;;;;;6066334;28;80943;-60
2022/12/25 03:18:52;;;;;;;10.07;5.85;;;23.20;47.20;;;;;;6087441;28;86078;-59
2022/12/25 03:28:32;;;;;;;10.40;5.65;;;23.20;47.10;;;;;;6106567;28;80486;-61
2022/12/25 03:31:32;;;;;;;11.73;5.70;;;23.20;47.00;;;;;;6106016;28;82110;-61
2022/12/25 04:37:40;;;;;;;10.65;5.88;;;23.40;46.10;;;;;;6080688;28;80559;-65
2022/12/25 04:40:41;;;;;;;11.55;5.65;;;23.40;46.00;;;;;;6081247;28;81040;-64
2022/12/25 04:43:41;;;;;;;8.57;4.90;;;23.50;46.00;;;;;;6081939;28;81261;-66
2022/12/25 04:46:42;;;;;;;9.52;4.97;;;23.50;45.90;;;;;;6084171;28;80203;-60
2022/12/25 04:49:42;;;;;;;11.68;6.30;;;23.50;45.90;;;;;;6082022;28;81247;-62
2022/12/25 04:52:43;;;;;;;9.93;5.47;;;23.60;45.80;;;;;;6085126;28;81209;-62
2022/12/25 04:55:43;;;;;;;10.40;5.55;;;23.60;45.90;;;;;;6122683;28;81517;-63
2022/12/25 04:58:44;;;;;;;9.30;5.13;;;23.60;45.80;;;;;;6087337;28;80366;-60
2022/12/25 05:01:47;;;;;;;7.50;4.70;;;23.60;45.90;;;;;;6086982;28;80589;-63
2022/12/25 05:04:48;;;;;;;8.88;4.63;;;23.70;46.00;;;;;;6085917;28;80468;-65
2022/12/25 05:07:48;;;;;;;8.75;4.68;;;23.70;46.00;;;;;;6085849;28;82904;-65
2022/12/25 05:10:49;;;;;;;8.93;4.60;;;23.70;46.10;;;;;;6098058;28;80198;-64
2022/12/25 05:13:49;;;;;;;9.45;5.20;;;23.70;46.10;;;;;;6096559;28;81237;-63
2022/12/25 05:16:50;;;;;;;10.90;4.93;;;23.80;46.10;;;;;;6083959;28;80921;-68
2022/12/25 05:19:50;;;;;;;10.50;5.00;;;23.80;46.00;;;;;;6094148;28;82249;-64
2022/12/25 05:22:51;;;;;;;9.95;5.18;;;23.80;46.00;;;;;;6089875;28;80429;-64
2022/12/25 05:25:51;;;;;;;11.05;5.80;;;23.70;46.10;;;;;;6094217;28;80595;-65
2022/12/25 05:28:52;;;;;;;8.23;5.18;;;23.80;46.80;;;;;;6098908;28;80383;-64
2022/12/25 05:31:52;;;;;;;7.85;4.35;;;23.80;47.10;;;;;;6097552;28;82008;-62
2022/12/25 05:34:53;;;;;;;6.15;4.30;;;23.80;47.80;;;;;;6102695;28;81176;-62
2022/12/25 05:37:53;;;;;;;10.68;4.88;;;23.80;48.30;;;;;;6102642;28;80809;-60
2022/12/25 05:40:54;;;;;;;16.75;5.85;;;23.80;47.70;;;;;;6101469;28;80359;-63
2022/12/25 05:43:54;;;;;;;10.95;5.18;;;23.90;48.00;;;;;;6105811;28;80241;-64
2022/12/25 05:46:55;;;;;;;8.23;5.13;;;23.90;48.00;;;;;;6073251;28;81433;-69
2022/12/25 05:49:55;;;;;;;9.25;4.93;;;23.90;47.90;;;;;;6076944;28;85512;-63
2022/12/25 05:52:56;;;;;;;16.48;5.25;;;23.90;48.50;;;;;;6085005;28;80528;-66
2022/12/25 05:55:57;;;;;;;9.90;4.55;;;23.80;48.70;;;;;;6091347;28;81194;-64
2022/12/25 05:58:57;;;;;;;9.30;4.70;;;23.80;48.90;;;;;;6088246;28;81901;-64
2022/12/25 06:01:57;;;;;;;7.53;4.65;;;23.80;49.00;;;;;;6086152;28;81180;-63
2022/12/25 06:04:58;;;;;;;8.75;4.78;;;23.80;49.20;;;;;;6086770;28;81374;-67
2022/12/25 06:07:59;;;;;;;9.43;4.20;;;23.80;49.00;;;;;;6083949;28;81799;-68
2022/12/25 06:10:59;;;;;;;9.50;4.60;;;23.80;49.70;;;;;;6091810;28;80965;-69
2022/12/25 06:14:00;;;;;;;7.72;4.10;;;23.80;49.60;;;;;;6102234;28;80579;-67
2022/12/25 06:17:00;;;;;;;8.23;4.78;;;23.80;49.70;;;;;;6084917;28;80671;-67
2022/12/25 06:20:01;;;;;;;8.73;4.60;;;23.90;49.50;;;;;;6099193;28;80724;-70
2022/12/25 06:23:01;;;;;;;8.00;4.32;;;23.90;49.60;;;;;;6080992;28;82419;-66
2022/12/25 06:26:02;;;;;;;7.63;4.47;;;23.90;49.60;;;;;;6084788;28;80158;-66
2022/12/25 06:29:02;;;;;;;10.15;4.35;;;24.00;49.60;;;;;;6061117;28;82409;-67
2022/12/25 06:32:03;;;;;;;9.10;4.68;;;23.90;49.50;;;;;;6055748;28;81570;-64
2022/12/25 06:35:03;;;;;;;7.38;4.75;;;24.00;49.20;;;;;;6060777;28;80614;-68
2022/12/25 06:38:04;;;;;;;7.50;4.53;;;24.00;48.90;;;;;;6053356;28;80912;-71
2022/12/25 06:41:05;;;;;;;8.80;4.25;;;23.90;49.00;;;;;;6059119;28;81413;-70
2022/12/25 06:44:05;;;;;;;8.15;4.43;;;23.90;49.10;;;;;;6057268;28;81994;-70
2022/12/25 06:47:06;;;;;;;8.68;4.18;;;23.90;49.00;;;;;;6060514;28;80094;-72
2022/12/25 06:50:06;;;;;;;9.10;4.38;;;23.90;49.00;;;;;;6062121;28;80980;-62
2022/12/25 06:53:07;;;;;;;9.57;5.10;;;23.90;49.10;;;;;;6068722;28;80912;-64
2022/12/25 06:56:07;;;;;;;7.68;4.28;;;23.90;49.00;;;;;;6079841;28;80295;-64
2022/12/25 06:59:08;;;;;;;7.43;4.20;;;23.90;49.20;;;;;;6058725;28;83046;-63
2022/12/25 07:02:08;;;;;;;8.30;4.13;;;23.90;49.30;;;;;;6073171;28;81310;-63
2022/12/25 07:05:09;;;;;;;8.27;4.43;;;23.90;49.30;;;;;;6078373;28;80339;-63
2022/12/25 07:08:09;;;;;;;12.70;4.40;;;23.90;49.50;;;;;;6073398;28;81764;-65
2022/12/25 07:11:10;;;;;;;7.60;4.50;;;23.90;49.60;;;;;;6072587;28;81001;-65
2022/12/25 07:14:10;;;;;;;8.93;4.60;;;23.90;49.50;;;;;;6068459;28;80630;-63
2022/12/25 07:17:11;;;;;;;10.43;4.20;;;23.90;49.70;;;;;;6067309;28;81116;-60
2022/12/25 07:20:12;;;;;;;6.60;3.90;;;23.80;50.90;;;;;;6068347;28;84623;-63
2022/12/25 07:23:12;;;;;;;8.80;4.35;;;23.70;51.90;;;;;;6055593;28;81206;-67
2022/12/25 07:26:13;;;;;;;7.93;3.63;;;23.60;53.50;;;;;;6049528;28;84775;-66
2022/12/25 07:29:13;;;;;;;6.45;3.67;;;23.50;54.00;;;;;;6057570;28;87887;-60
2022/12/25 07:32:14;;;;;;;4.97;2.97;;;23.50;54.60;;;;;;6060059;28;80201;-63
2022/12/25 07:35:14;;;;;;;4.90;2.88;;;23.50;55.40;;;;;;6077997;28;80566;-63
2022/12/25 07:38:15;;;;;;;6.13;2.60;;;23.50;55.70;;;;;;6067641;28;80857;-68
2022/12/25 07:41:16;;;;;;;6.10;3.20;;;23.40;56.10;;;;;;6084290;28;82710;-66
2022/12/25 07:44:16;;;;;;;5.88;3.45;;;23.40;56.60;;;;;;6064121;28;85235;-66
2022/12/25 07:47:17;;;;;;;4.90;3.10;;;23.50;56.70;;;;;;6080441;28;80485;-65
2022/12/25 07:50:17;;;;;;;5.30;2.70;;;23.50;56.70;;;;;;6077123;28;81285;-59
2022/12/25 07:53:18;;;;;;;4.85;2.80;;;23.50;56.90;;;;;;6075779;28;81309;-60
2022/12/25 07:56:18;;;;;;;5.25;2.83;;;23.50;57.00;;;;;;6076745;28;87573;-59
2022/12/25 07:59:19;;;;;;;4.65;2.55;;;23.50;57.00;;;;;;6069766;28;80531;-60
2022/12/25 08:02:25;;;;;;;4.13;2.58;;;23.50;57.00;;;;;;6060693;28;81840;-58
2022/12/25 08:05:26;;;;;;;4.75;2.80;;;23.50;57.40;;;;;;6050823;28;80234;-58
2022/12/25 08:08:26;;;;;;;4.15;2.65;;;23.50;57.50;;;;;;6056559;28;80294;-65
2022/12/25 08:11:27;;;;;;;5.32;2.90;;;23.50;57.50;;;;;;6057611;28;80581;-63
2022/12/25 08:14:28;;;;;;;4.15;2.25;;;23.40;57.30;;;;;;6058688;28;81169;-62
2022/12/25 08:17:28;;;;;;;3.03;2.25;;;23.40;57.60;;;;;;6060868;28;81662;-59
2022/12/25 08:20:29;;;;;;;4.38;2.40;;;23.40;57.50;;;;;;6067567;28;80557;-64
2022/12/25 08:23:29;;;;;;;4.18;3.08;;;23.50;57.60;;;;;;6067282;28;82344;-60
2022/12/25 08:26:30;;;;;;;5.40;2.53;;;23.50;57.20;;;;;;6076461;28;80893;-60
2022/12/25 08:29:31;;;;;;;6.15;2.47;;;23.60;57.30;;;;;;6086359;28;80589;-64
2022/12/25 08:32:32;;;;;;;4.45;2.50;;;23.60;57.30;;;;;;6078379;28;81262;-62
2022/12/25 08:35:33;;;;;;;5.47;2.63;;;23.60;57.40;;;;;;6076139;28;81870;-62
2022/12/25 08:38:33;;;;;;;3.92;2.58;;;23.70;57.30;;;;;;6076270;28;86177;-62
2022/12/25 08:41:36;;;;;;;5.07;3.08;;;23.70;57.20;;;;;;6073880;28;80500;-61
2022/12/25 08:44:37;;;;;;;7.43;3.17;;;23.70;56.60;;;;;;6071129;28;80318;-58
2022/12/25 08:47:37;;;;;;;6.03;2.22;;;23.80;56.50;;;;;;6071530;28;81359;-58
2022/12/25 08:50:38;;;;;;;6.13;3.15;;;24.00;56.00;;;;;;6073032;28;80477;-57
2022/12/25 08:53:39;;;;;;;6.82;2.78;;;24.10;55.80;;;;;;6063048;28;80267;-58
2022/12/25 08:56:39;;;;;;;6.50;2.47;;;24.10;55.70;;;;;;6066152;28;81387;-57
2022/12/25 08:59:40;;;;;;;4.95;2.70;;;24.30;55.40;;;;;;6085565;28;81109;-59
2022/12/25 09:02:41;;;;;;;4.63;2.33;;;24.40;55.20;;;;;;6069295;28;81876;-68
2022/12/25 09:05:42;;;;;;;6.45;2.63;;;24.40;54.90;;;;;;6076274;28;86826;-54
2022/12/25 09:08:42;;;;;;;4.57;2.55;;;24.50;55.00;;;;;;6060222;28;84608;-57
2022/12/25 09:11:43;;;;;;;3.92;2.42;;;24.60;55.10;;;;;;6069437;28;84014;-63
2022/12/25 09:14:43;;;;;;;7.85;2.83;;;24.60;55.50;;;;;;6061084;28;81820;-65
2022/12/25 09:17:44;;;;;;;6.93;3.40;;;24.60;55.20;;;;;;6065334;28;81365;-59
2022/12/25 09:20:45;;;;;;;6.15;3.75;;;24.50;53.40;;;;;;6071012;28;81539;-59
2022/12/25 09:23:45;;;;;;;4.95;3.35;;;24.50;53.30;;;;;;6053699;28;81273;-59
2022/12/25 09:26:46;;;;;;;10.25;4.03;;;24.40;52.40;;;;;;6054157;28;80976;-62
2022/12/25 09:29:46;;;;;;;9.65;4.25;;;24.30;51.50;;;;;;6065180;28;80837;-62
2022/12/25 09:32:47;;;;;;;9.38;4.35;;;24.30;50.80;;;;;;6051145;28;80445;-61
2022/12/25 09:35:47;;;;;;;7.85;3.45;;;24.20;50.70;;;;;;6049145;28;80680;-60
2022/12/25 09:38:48;;;;;;;9.00;3.63;;;24.20;51.80;;;;;;6051852;28;80904;-59
2022/12/25 09:41:48;;;;;;;5.80;3.30;;;24.10;51.70;;;;;;6037238;28;85787;-59
2022/12/25 09:44:49;;;;;;;7.30;3.10;;;24.10;52.10;;;;;;6039549;28;80881;-58
2022/12/25 09:47:49;;;;;;;7.40;2.88;;;24.10;52.90;;;;;;6042145;28;81077;-59
2022/12/25 09:50:50;;;;;;;6.60;3.13;;;24.10;53.20;;;;;;6053690;28;81959;-59
2022/12/25 09:53:50;;;;;;;6.72;3.05;;;24.20;53.10;;;;;;6041744;28;81033;-59
2022/12/25 09:56:51;;;;;;;8.50;3.03;;;24.20;53.10;;;;;;6043405;28;81102;-60
2022/12/25 09:59:52;;;;;;;5.93;3.08;;;24.30;53.30;;;;;;6051225;28;81075;-59
2022/12/25 10:02:52;;;;;;;8.23;3.03;;;24.30;53.30;;;;;;6049627;28;80743;-69
2022/12/25 10:05:53;;;;;;;6.75;2.72;;;24.40;53.30;;;;;;6052590;28;82159;-58
2022/12/25 10:08:53;;;;;;;3.65;2.67;;;24.50;53.40;;;;;;6053341;28;81782;-59
2022/12/25 10:11:54;;;;;;;5.38;2.83;;;24.60;53.40;;;;;;6053729;28;81029;-58
2022/12/25 10:14:54;;;;;;;6.68;2.72;;;24.80;53.60;;;;;;6052006;28;85377;-61
2022/12/25 10:17:55;;;;;;;4.82;2.72;;;24.90;53.30;;;;;;6047005;28;81146;-66
2022/12/25 10:20:55;;;;;;;4.22;2.70;;;25.10;53.80;;;;;;6067185;28;81582;-61
2022/12/25 10:23:56;;;;;;;3.42;2.58;;;25.30;53.10;;;;;;6069341;28;80694;-60
2022/12/25 10:26:56;;;;;;;6.47;2.75;;;25.40;52.80;;;;;;6062175;28;82036;-59
2022/12/25 10:29:57;;;;;;;6.68;3.88;;;25.50;52.50;;;;;;6052132;28;81202;-69
2022/12/25 10:32:57;;;;;;;10.50;4.07;;;25.30;47.90;;;;;;6059206;28;81681;-66
2022/12/25 10:35:58;;;;;;;10.88;3.80;;;25.20;47.80;;;;;;6057475;28;84974;-68
2022/12/25 10:38:58;;;;;;;11.32;4.38;;;25.10;45.00;;;;;;6058457;28;83446;-64
2022/12/25 10:41:59;;;;;;;8.18;4.10;;;25.00;44.50;;;;;;6055721;28;80594;-63
2022/12/25 10:44:59;;;;;;;8.50;4.15;;;24.90;43.80;;;;;;6057106;28;80872;-60
2022/12/25 10:48:00;;;;;;;7.13;3.88;;;24.80;43.70;;;;;;6061558;28;80978;-60
2022/12/25 10:51:00;;;;;;;8.30;3.92;;;24.60;43.00;;;;;;6067853;28;80227;-67
2022/12/25 10:54:01;;;;;;;10.20;4.22;;;24.40;42.90;;;;;;6059618;28;80535;-58
2022/12/25 10:57:01;;;;;;;9.32;4.13;;;24.40;42.50;;;;;;6054145;28;80744;-57
2022/12/25 11:00:02;;;;;;;6.50;3.58;;;24.40;41.70;;;;;;6058885;28;80987;-57
2022/12/25 11:03:03;;;;;;;7.68;3.67;;;24.40;41.90;;;;;;6058058;28;86107;-58
2022/12/25 11:06:03;;;;;;;8.43;3.92;;;24.60;41.80;;;;;;6046327;28;85339;-59
2022/12/25 11:09:04;;;;;;;7.85;3.85;;;24.70;41.30;;;;;;6063255;28;82248;-57
2022/12/25 11:12:04;;;;;;;10.13;4.30;;;24.80;42.10;;;;;;6078829;28;80906;-63
2022/12/25 11:15:05;;;;;;;8.07;4.28;;;24.80;40.50;;;;;;6070344;28;81510;-63
2022/12/25 11:18:05;;;;;;;7.40;4.10;;;24.90;40.90;;;;;;6059357;28;80997;-61
2022/12/25 11:21:06;;;;;;;9.65;4.07;;;25.00;41.70;;;;;;6074142;28;82317;-62
2022/12/25 11:24:06;;;;;;;12.13;4.47;;;25.10;40.90;;;;;;6077049;28;80596;-61
2022/12/25 11:27:07;;;;;;;9.88;4.68;;;24.90;39.40;;;;;;6075536;28;80407;-64
2022/12/25 11:30:07;;;;;;;10.68;5.05;;;25.00;40.00;;;;;;6089496;28;82254;-61
2022/12/25 11:33:08;;;;;;;9.07;4.45;;;25.10;40.00;;;;;;6075881;28;80950;-59
2022/12/25 11:36:09;;;;;;;12.40;4.95;;;25.00;39.20;;;;;;6065421;28;84830;-59
2022/12/25 11:39:09;;;;;;;10.45;4.55;;;25.10;39.50;;;;;;6069317;28;84403;-62
2022/12/25 11:42:10;;;;;;;11.65;4.55;;;25.10;39.80;;;;;;6079207;28;81240;-62
2022/12/25 11:45:10;;;;;;;11.70;5.47;;;25.20;39.10;;;;;;6078081;28;80549;-61
2022/12/25 11:48:11;;;;;;;8.85;4.00;;;25.10;38.60;;;;;;6072316;28;85900;-61
2022/12/25 11:51:11;;;;;;;11.95;5.22;;;25.00;38.10;;;;;;6048584;28;80921;-63
2022/12/25 11:54:12;;;;;;;11.60;5.00;;;24.90;37.90;;;;;;6051821;28;85750;-61
2022/12/25 11:57:12;;;;;;;10.57;4.80;;;25.00;38.50;;;;;;6060378;28;81722;-61
2022/12/25 12:00:13;;;;;;;11.25;4.22;;;25.10;38.70;;;;;;6071269;28;81150;-62
2022/12/25 12:03:14;;;;;;;9.05;4.40;;;25.10;38.70;;;;;;6072341;28;84930;-61
2022/12/25 12:06:14;;;;;;;9.80;4.45;;;25.20;39.10;;;;;;6053263;28;80839;-63
2022/12/25 12:09:15;;;;;;;13.00;4.95;;;25.30;39.00;;;;;;6041987;28;81951;-59
2022/12/25 12:12:15;;;;;;;11.68;4.72;;;25.30;39.00;;;;;;6050905;28;80333;-61
2022/12/25 12:15:16;;;;;;;9.65;4.50;;;25.30;38.70;;;;;;6065896;28;80347;-62
2022/12/25 12:18:16;;;;;;;8.60;4.75;;;25.40;39.00;;;;;;6061955;28;80572;-62
2022/12/25 12:21:17;;;;;;;12.23;5.45;;;25.30;38.70;;;;;;6068241;28;80774;-62
2022/12/25 12:24:17;;;;;;;8.93;4.45;;;25.40;38.80;;;;;;6068965;28;80375;-61
2022/12/25 12:27:18;;;;;;;8.27;4.68;;;25.30;38.40;;;;;;6059522;28;80545;-61
2022/12/25 12:30:18;;;;;;;8.75;4.63;;;25.30;38.40;;;;;;6057421;28;83090;-59
2022/12/25 12:33:19;;;;;;;12.27;4.90;;;25.40;38.60;;;;;;6080449;28;80697;-63
2022/12/25 12:36:21;;;;;;;8.02;4.75;;;25.40;38.80;;;;;;6089662;28;80598;-60
2022/12/25 12:39:21;;;;;;;12.40;4.97;;;25.40;39.20;;;;;;6082626;28;81476;-61
2022/12/25 12:42:24;;;;;;;11.57;4.35;;;25.40;39.30;;;;;;6066163;28;86179;-59
2022/12/25 12:45:25;;;;;;;10.35;4.60;;;25.40;39.30;;;;;;6049991;28;83619;-60
2022/12/25 12:48:25;;;;;;;12.23;5.35;;;25.40;38.70;;;;;;6070635;28;84636;-60
2022/12/25 12:51:26;;;;;;;8.60;4.45;;;25.40;38.80;;;;;;6065825;28;80168;-63
2022/12/25 12:54:27;;;;;;;11.27;4.82;;;25.30;38.90;;;;;;6054812;28;85383;-63
2022/12/25 12:57:31;;;;;;;10.80;5.45;;;25.30;38.60;;;;;;6072509;28;83775;-62
2022/12/25 13:00:32;;;;;;;13.40;5.57;;;25.30;39.00;;;;;;6081899;28;85176;-62
2022/12/25 13:03:32;;;;;;;12.57;5.30;;;25.30;40.00;;;;;;6061883;28;83544;-59
2022/12/25 13:06:33;;;;;;;11.27;5.28;;;25.30;40.30;;;;;;6045992;28;82297;-59
2022/12/25 13:09:33;;;;;;;8.30;4.50;;;25.30;40.20;;;;;;6059095;28;81455;-59
2022/12/25 13:12:34;;;;;;;10.98;4.78;;;25.30;40.90;;;;;;6061813;28;82089;-59
2022/12/25 13:15:34;;;;;;;10.30;5.10;;;25.30;41.60;;;;;;6060217;28;80398;-59
2022/12/25 13:18:35;;;;;;;11.00;4.80;;;25.40;42.70;;;;;;6059874;28;81032;-59
2022/12/25 13:21:35;;;;;;;11.30;5.63;;;25.40;43.30;;;;;;6069371;28;80268;-59
2022/12/25 13:24:36;;;;;;;10.07;5.72;;;25.40;43.30;;;;;;6070305;28;80834;-61
2022/12/25 13:27:37;;;;;;;10.25;5.28;;;25.40;43.00;;;;;;6071836;28;80541;-56
2022/12/25 13:30:37;;;;;;;12.40;5.35;;;25.40;42.50;;;;;;6065479;28;83550;-57
2022/12/25 13:33:38;;;;;;;12.98;5.00;;;25.40;41.60;;;;;;6081806;28;83247;-53
2022/12/25 13:36:39;;;;;;;13.38;5.93;;;25.30;40.60;;;;;;6067916;28;81409;-54
2022/12/25 13:39:39;;;;;;;8.48;4.55;;;25.30;40.40;;;;;;6075859;28;85418;-55
2022/12/25 13:42:40;;;;;;;14.13;5.60;;;25.30;40.40;;;;;;6063330;28;80912;-53
2022/12/25 13:45:40;;;;;;;12.88;5.25;;;25.30;41.10;;;;;;6062438;28;80299;-56
2022/12/25 13:48:41;;;;;;;14.95;5.60;;;25.20;40.90;;;;;;6067029;28;81198;-64
2022/12/25 13:51:41;;;;;;;11.50;5.43;;;25.20;41.00;;;;;;6080285;28;82536;-55
2022/12/25 13:54:42;;;;;;;11.48;6.25;;;25.30;40.90;;;;;;6067082;28;80398;-58
2022/12/25 13:57:42;;;;;;;16.25;5.28;;;25.20;40.60;;;;;;6064216;28;82101;-59
2022/12/25 14:00:43;;;;;;;11.02;5.63;;;25.20;40.40;;;;;;6055701;28;83510;-65
2022/12/25 14:03:44;;;;;;;10.63;5.00;;;25.10;40.00;;;;;;6051020;28;82816;-60
2022/12/25 14:06:45;;;;;;;17.83;5.53;;;25.00;39.70;;;;;;6049580;28;80946;-60
2022/12/25 14:09:45;;;;;;;9.75;4.88;;;24.90;39.50;;;;;;6059184;28;80662;-59
2022/12/25 14:12:48;;;;;;;14.30;4.47;;;24.70;39.40;;;;;;6056531;28;80515;-60
2022/12/25 14:15:48;;;;;;;11.07;4.95;;;24.60;39.50;;;;;;6070501;28;81264;-70
2022/12/25 14:18:49;;;;;;;12.10;5.35;;;24.60;39.60;;;;;;6073321;28;83015;-54
2022/12/25 14:21:52;;;;;;;16.92;6.22;;;24.50;39.80;;;;;;6054934;28;81049;-56
2022/12/25 14:24:53;;;;;;;15.50;5.95;;;24.40;39.80;;;;;;6051778;28;87430;-55
2022/12/25 14:27:53;;;;;;;14.50;6.18;;;24.40;39.90;;;;;;6053546;28;81097;-55
2022/12/25 14:30:54;;;;;;;34.58;8.43;;;24.30;39.80;;;;;;6062510;28;81970;-55
2022/12/25 14:33:54;;;;;;;13.45;6.70;;;24.20;40.10;;;;;;6048842;28;84955;-57
2022/12/25 14:36:55;;;;;;;12.10;6.90;;;24.30;40.40;;;;;;6039829;28;84217;-59
2022/12/25 14:39:56;;;;;;;11.70;6.25;;;24.30;40.60;;;;;;6043225;28;80817;-57
2022/12/25 14:42:56;;;;;;;16.70;6.03;;;24.30;40.80;;;;;;6042613;28;81652;-56
2022/12/25 14:45:57;;;;;;;7.85;5.30;;;24.30;41.10;;;;;;6039930;28;81435;-56
2022/12/25 14:48:57;;;;;;;9.65;5.80;;;24.40;41.40;;;;;;6043053;28;84556;-58
2022/12/25 14:51:58;;;;;;;11.05;5.70;;;24.40;41.60;;;;;;6044491;28;81189;-63
2022/12/25 14:54:58;;;;;;;10.52;5.82;;;24.40;41.90;;;;;;6055642;28;80832;-64
2022/12/25 14:57:59;;;;;;;13.07;5.63;;;24.40;42.20;;;;;;6063299;28;80928;-62
2022/12/25 15:00:59;;;;;;;12.35;5.30;;;24.40;42.40;;;;;;6077733;28;80792;-63
2022/12/25 15:04:00;;;;;;;8.85;4.88;;;24.30;42.50;;;;;;6079553;28;80173;-63
2022/12/25 15:07:05;;;;;;;14.95;5.22;;;24.30;43.00;;;;;;6073295;28;83624;-61
2022/12/25 15:10:09;;;;;;;11.70;5.28;;;24.30;43.10;;;;;;6066892;28;82316;-63
2022/12/25 15:13:12;;;;;;;12.55;6.55;;;24.30;43.30;;;;;;6056060;28;81386;-63
2022/12/25 15:16:12;;;;;;;12.30;6.38;;;24.30;43.40;;;;;;6061672;28;80836;-63
2022/12/25 15:19:13;;;;;;;10.65;6.47;;;24.30;43.50;;;;;;6056750;28;81293;-64
2022/12/25 15:22:13;;;;;;;13.45;6.88;;;24.30;43.60;;;;;;6054340;28;81652;-67
2022/12/25 15:25:14;;;;;;;12.57;6.75;;;24.30;43.90;;;;;;6064896;28;80284;-68
2022/12/25 15:28:14;;;;;;;19.80;7.95;;;24.30;44.10;;;;;;6055057;28;80582;-68
2022/12/25 15:31:15;;;;;;;17.08;7.60;;;24.40;44.30;;;;;;6061220;28;80878;-66
2022/12/25 15:34:15;;;;;;;13.73;7.82;;;24.30;44.50;;;;;;6060091;28;81850;-73
2022/12/25 15:37:16;;;;;;;17.20;8.68;;;24.30;44.60;;;;;;6060562;28;80492;-68
2022/12/25 15:40:18;;;;;;;22.15;8.63;;;24.30;44.80;;;;;;6056946;28;80624;-71
2022/12/25 15:43:18;;;;;;;19.65;9.25;;;24.30;44.90;;;;;;6050820;28;80922;-72
2022/12/25 15:46:23;;;;;;;18.02;8.75;;;24.30;45.10;;;;;;6061697;28;82023;-73
2022/12/25 15:49:23;;;;;;;14.15;8.02;;;24.30;45.30;;;;;;6060031;28;85662;-74
2022/12/25 15:52:24;;;;;;;15.77;8.43;;;24.30;45.40;;;;;;6055123;28;82300;-75
2022/12/25 15:55:25;;;;;;;14.35;8.18;;;24.30;45.50;;;;;;6068420;28;81916;-72
2022/12/25 15:58:25;;;;;;;16.50;8.63;;;24.30;45.60;;;;;;6075553;28;80948;-68
2022/12/25 16:01:26;;;;;;;12.25;7.82;;;24.30;45.50;;;;;;6065412;28;85014;-68
2022/12/25 16:04:26;;;;;;;13.48;7.90;;;24.30;45.30;;;;;;6057694;28;81193;-67
2022/12/25 16:07:28;;;;;;;17.50;8.85;;;24.20;45.20;;;;;;6064241;28;83059;-67
2022/12/25 16:10:28;;;;;;;16.63;9.52;;;24.20;45.20;;;;;;6080276;28;84590;-63
2022/12/25 16:13:29;;;;;;;23.75;10.52;;;24.20;45.50;;;;;;6086534;28;80948;-64
2022/12/25 16:16:29;;;;;;;19.08;11.00;;;24.20;45.40;;;;;;6064079;28;83111;-63
2022/12/25 16:19:30;;;;;;;17.98;11.35;;;24.20;45.40;;;;;;6066301;28;85202;-69
2022/12/25 16:22:38;;;;;;;20.42;11.65;;;24.30;45.80;;;;;;6056023;28;83092;-62
2022/12/25 16:25:39;;;;;;;21.35;11.93;;;24.30;45.80;;;;;;6055663;28;83632;-59
2022/12/25 16:28:39;;;;;;;22.52;13.35;;;24.30;45.70;;;;;;6056184;28;85042;-59
2022/12/25 16:31:40;;;;;;;33.13;15.23;;;24.30;45.40;;;;;;6055794;28;88091;-60
2022/12/25 16:34:40;;;;;;;26.80;15.25;;;24.20;45.30;;;;;;6047009;28;84525;-61
2022/12/25 16:37:41;;;;;;;26.40;15.05;;;24.20;45.20;;;;;;6055962;28;83206;-61
2022/12/25 16:40:42;;;;;;;29.63;15.95;;;24.20;45.40;;;;;;6047548;28;83496;-62
2022/12/25 16:43:42;;;;;;;25.23;14.70;;;24.20;45.90;;;;;;6060005;28;83959;-59
2022/12/25 16:46:43;;;;;;;28.20;16.23;;;24.20;45.80;;;;;;6054833;28;83272;-61
2022/12/25 16:49:43;;;;;;;28.65;16.88;;;24.20;45.70;;;;;;6058504;28;90446;-63
2022/12/25 16:52:44;;;;;;;26.52;16.33;;;24.20;45.70;;;;;;6064695;28;85061;-58
2022/12/25 16:55:44;;;;;;;27.60;16.10;;;24.20;45.90;;;;;;6066419;28;83062;-63
2022/12/25 16:58:45;;;;;;;29.90;15.77;;;24.20;46.20;;;;;;6057654;28;83527;-66
2022/12/25 17:01:46;;;;;;;25.77;15.25;;;24.20;46.10;;;;;;6050464;28;83509;-68
2022/12/25 17:04:46;;;;;;;29.10;16.52;;;24.20;46.30;;;;;;6050953;28;83530;-65
2022/12/25 17:07:47;;;;;;;27.48;16.33;;;24.20;46.20;;;;;;6036505;28;83804;-65
2022/12/25 17:10:47;;;;;;;28.33;18.25;;;24.20;46.20;;;;;;6070785;28;82953;-67
2022/12/25 17:13:48;;;;;;;26.10;15.93;;;24.20;46.00;;;;;;6081263;28;84434;-63
2022/12/25 17:16:48;;;;;;;33.38;18.83;;;24.20;45.80;;;;;;6080874;28;89318;-62
2022/12/25 17:19:49;;;;;;;27.75;16.80;;;24.10;45.80;;;;;;6099143;28;83390;-68
2022/12/25 17:22:50;;;;;;;28.70;16.25;;;24.20;46.10;;;;;;6100532;28;82777;-70
2022/12/25 17:25:50;;;;;;;27.45;16.23;;;24.20;46.00;;;;;;6099436;28;83188;-61